Impacts METAR Board INFO
IDs:

KFLL - Ft Lauderdale-Hollyw, FL, US

Updated at: 0730 UTC 24 Nov 2017
Potential Impact None Slight Moderate High
Time23/19Z 23/20Z 23/21Z 23/22Z 23/23Z 24/00Z 24/01Z 24/02Z 24/03Z 24/04Z 24/05Z 24/06Z 24/07Z
VIS10 10 4 10 10 10 10 10 10 10 10 10 10
CIG25 -- 48 110 250 250 250 250 250 250 200 200 200
CoverBKNSCTOVCOVCBKNBKNBKNBKNBKNOVCOVCOVCBKN
FltCatMVFRVFRMVFRVFRVFRVFRVFRVFRVFRVFRVFRVFRVFR
WX----+RA BR--------------------
WDir160210220150150210200220220230230270290
WSpd14 8 7 4 3 3 5 5 5 6 3 5 4
WGst21 -- -- -- -- -- -- -- -- -- -- -- --
Raw hourly METARs
KFLL 231853Z 16014G21KT 10SM BKN025 BKN080 BKN150 BKN250 27/23 A2980 RMK AO2 SLP089 CB DSNT N-NE AND S MOV NE TCU SW T02720233
KFLL 231953Z 21008KT 10SM FEW025CB FEW060 FEW110 SCT150 BKN250 27/21 A2980 RMK AO2 LTG DSNT N AND NE AND S SLP090 CB W-NW AND DSNT NE TCU E T02670211
KFLL 232058Z 22007KT 4SM +RA BR SCT031CB BKN048 BKN065 OVC250 22/22 A2981 RMK AO2 LTG DSNT NE CB N-SE MOV NE P0002 T02220222
KFLL 232153Z 15004KT 10SM FEW031 BKN110 OVC250 23/22 A2981 RMK AO2 LTG DSNT NE AND E RAE40 TSB09E26 SLP095 P0002 T02330217
KFLL 232253Z 15003KT 10SM FEW035 SCT043 BKN250 24/22 A2982 RMK AO2 SLP098 T02390222
KFLL 232353Z 21003KT 10SM FEW029 BKN250 24/23 A2982 RMK AO2 SLP099 60046 T02390228 10278 20222 51006
KFLL 240053Z 20005KT 10SM FEW029 BKN250 23/23 A2983 RMK AO2 LTG DSNT NE AND E SLP102 T02330228
KFLL 240153Z 22005KT 10SM FEW029 FEW065 BKN250 23/23 A2985 RMK AO2 SLP108 T02330228
KFLL 240253Z 22005KT 10SM FEW030 FEW065 BKN250 23/23 A2984 RMK AO2 SLP105 T02330228 50006
KFLL 240353Z 23006KT 10SM FEW029 FEW065 OVC250 23/23 A2984 RMK AO2 SLP104 T02330228
KFLL 240453Z 23003KT 10SM FEW030 FEW050 OVC200 23/23 A2981 RMK AO2 SLP094 T02330228 402780222
KFLL 240553Z 27005KT 10SM FEW030 OVC200 23/22 A2983 RMK AO2 SLP101 T02280222 10239 20228 55004
KFLL 240653Z 29004KT 10SM FEW029 BKN200 23/22 A2983 RMK AO2 SLP100 T02280222